sensor_id;sensor_type;location;lat;lon;timestamp;P1;durP1;ratioP1;P2;durP2;ratioP2
9763;SDS011;4921;43.214;27.936;2022-12-29T00:00:03;10.57;;;6.50;;
9763;SDS011;4921;43.214;27.936;2022-12-29T00:02:31;8.97;;;6.03;;
9763;SDS011;4921;43.214;27.936;2022-12-29T00:04:58;9.33;;;6.40;;
9763;SDS011;4921;43.214;27.936;2022-12-29T00:07:26;9.30;;;5.90;;
9763;SDS011;4921;43.214;27.936;2022-12-29T00:09:54;10.33;;;6.10;;
9763;SDS011;4921;43.214;27.936;2022-12-29T00:12:21;7.70;;;5.87;;
9763;SDS011;4921;43.214;27.936;2022-12-29T00:14:48;9.33;;;5.73;;
9763;SDS011;4921;43.214;27.936;2022-12-29T00:17:32;9.47;;;6.50;;
9763;SDS011;4921;43.214;27.936;2022-12-29T00:19:59;10.47;;;6.23;;
9763;SDS011;4921;43.214;27.936;2022-12-29T00:22:52;9.60;;;5.73;;
9763;SDS011;4921;43.214;27.936;2022-12-29T00:25:38;11.17;;;6.47;;
9763;SDS011;4921;43.214;27.936;2022-12-29T00:28:22;9.97;;;7.07;;
9763;SDS011;4921;43.214;27.936;2022-12-29T00:31:07;13.23;;;8.03;;
9763;SDS011;4921;43.214;27.936;2022-12-29T00:33:55;11.60;;;7.10;;
9763;SDS011;4921;43.214;27.936;2022-12-29T00:36:40;11.07;;;7.17;;
9763;SDS011;4921;43.214;27.936;2022-12-29T00:39:09;12.93;;;7.13;;
9763;SDS011;4921;43.214;27.936;2022-12-29T00:42:03;14.97;;;7.33;;
9763;SDS011;4921;43.214;27.936;2022-12-29T00:44:48;13.90;;;7.13;;
9763;SDS011;4921;43.214;27.936;2022-12-29T00:47:15;11.50;;;7.07;;
9763;SDS011;4921;43.214;27.936;2022-12-29T00:49:42;13.67;;;6.87;;
9763;SDS011;4921;43.214;27.936;2022-12-29T00:52:09;10.67;;;6.27;;
9763;SDS011;4921;43.214;27.936;2022-12-29T00:54:38;9.13;;;6.60;;
9763;SDS011;4921;43.214;27.936;2022-12-29T00:57:07;9.77;;;6.77;;
9763;SDS011;4921;43.214;27.936;2022-12-29T00:59:36;12.70;;;6.70;;
9763;SDS011;4921;43.214;27.936;2022-12-29T01:02:03;9.47;;;6.20;;
9763;SDS011;4921;43.214;27.936;2022-12-29T01:04:31;11.70;;;5.60;;
9763;SDS011;4921;43.214;27.936;2022-12-29T01:06:58;9.00;;;5.53;;
9763;SDS011;4921;43.214;27.936;2022-12-29T01:09:25;12.70;;;5.70;;
9763;SDS011;4921;43.214;27.936;2022-12-29T01:12:11;7.40;;;4.87;;
9763;SDS011;4921;43.214;27.936;2022-12-29T01:14:38;8.43;;;4.93;;
9763;SDS011;4921;43.214;27.936;2022-12-29T01:17:05;6.83;;;4.83;;
9763;SDS011;4921;43.214;27.936;2022-12-29T01:19:33;6.27;;;4.33;;
9763;SDS011;4921;43.214;27.936;2022-12-29T01:22:00;6.47;;;4.33;;
9763;SDS011;4921;43.214;27.936;2022-12-29T01:24:27;4.67;;;4.00;;
9763;SDS011;4921;43.214;27.936;2022-12-29T01:26:54;8.57;;;5.07;;
9763;SDS011;4921;43.214;27.936;2022-12-29T01:29:23;5.93;;;5.17;;
9763;SDS011;4921;43.214;27.936;2022-12-29T01:31:50;6.47;;;4.47;;
9763;SDS011;4921;43.214;27.936;2022-12-29T01:34:17;5.80;;;4.97;;
9763;SDS011;4921;43.214;27.936;2022-12-29T01:36:44;6.07;;;4.63;;
9763;SDS011;4921;43.214;27.936;2022-12-29T01:39:11;7.87;;;4.80;;
9763;SDS011;4921;43.214;27.936;2022-12-29T01:41:38;7.43;;;5.03;;
9763;SDS011;4921;43.214;27.936;2022-12-29T01:47:13;8.27;;;5.50;;
9763;SDS011;4921;43.214;27.936;2022-12-29T01:49:45;9.40;;;4.83;;
9763;SDS011;4921;43.214;27.936;2022-12-29T01:52:12;7.03;;;4.90;;
9763;SDS011;4921;43.214;27.936;2022-12-29T01:54:40;7.57;;;4.87;;
9763;SDS011;4921;43.214;27.936;2022-12-29T01:57:10;9.67;;;4.63;;
9763;SDS011;4921;43.214;27.936;2022-12-29T01:59:45;6.27;;;4.20;;
9763;SDS011;4921;43.214;27.936;2022-12-29T02:02:17;6.10;;;4.53;;
9763;SDS011;4921;43.214;27.936;2022-12-29T02:04:45;7.47;;;4.27;;
9763;SDS011;4921;43.214;27.936;2022-12-29T02:07:14;5.87;;;4.37;;
9763;SDS011;4921;43.214;27.936;2022-12-29T02:09:45;10.40;;;3.93;;
9763;SDS011;4921;43.214;27.936;2022-12-29T02:12:14;6.20;;;4.10;;
9763;SDS011;4921;43.214;27.936;2022-12-29T02:14:41;4.67;;;3.83;;
9763;SDS011;4921;43.214;27.936;2022-12-29T02:17:12;5.30;;;4.03;;
9763;SDS011;4921;43.214;27.936;2022-12-29T02:23:00;4.50;;;4.07;;
9763;SDS011;4921;43.214;27.936;2022-12-29T02:26:01;5.10;;;4.33;;
9763;SDS011;4921;43.214;27.936;2022-12-29T02:31:43;4.73;;;3.77;;
9763;SDS011;4921;43.214;27.936;2022-12-29T02:34:17;5.17;;;4.00;;
9763;SDS011;4921;43.214;27.936;2022-12-29T02:36:55;5.50;;;3.50;;
9763;SDS011;4921;43.214;27.936;2022-12-29T02:39:30;7.17;;;4.13;;
9763;SDS011;4921;43.214;27.936;2022-12-29T02:42:06;6.87;;;4.30;;
9763;SDS011;4921;43.214;27.936;2022-12-29T02:44:42;5.27;;;3.80;;
9763;SDS011;4921;43.214;27.936;2022-12-29T02:47:22;6.97;;;4.00;;
9763;SDS011;4921;43.214;27.936;2022-12-29T02:49:58;5.40;;;3.40;;
9763;SDS011;4921;43.214;27.936;2022-12-29T02:52:30;9.07;;;3.83;;
9763;SDS011;4921;43.214;27.936;2022-12-29T02:55:00;5.90;;;3.60;;
9763;SDS011;4921;43.214;27.936;2022-12-29T02:57:29;9.57;;;3.87;;
9763;SDS011;4921;43.214;27.936;2022-12-29T02:59:58;3.83;;;3.43;;
9763;SDS011;4921;43.214;27.936;2022-12-29T03:02:33;6.27;;;3.67;;
9763;SDS011;4921;43.214;27.936;2022-12-29T03:05:18;4.57;;;3.67;;
9763;SDS011;4921;43.214;27.936;2022-12-29T03:07:54;5.37;;;4.40;;
9763;SDS011;4921;43.214;27.936;2022-12-29T03:10:30;5.53;;;3.70;;
9763;SDS011;4921;43.214;27.936;2022-12-29T03:13:10;3.93;;;3.30;;
9763;SDS011;4921;43.214;27.936;2022-12-29T03:16:04;6.23;;;3.93;;
9763;SDS011;4921;43.214;27.936;2022-12-29T03:18:39;7.90;;;3.73;;
9763;SDS011;4921;43.214;27.936;2022-12-29T03:21:12;4.20;;;3.80;;
9763;SDS011;4921;43.214;27.936;2022-12-29T03:23:43;5.13;;;3.97;;
9763;SDS011;4921;43.214;27.936;2022-12-29T03:26:14;5.50;;;4.07;;
9763;SDS011;4921;43.214;27.936;2022-12-29T03:28:45;7.80;;;3.67;;
9763;SDS011;4921;43.214;27.936;2022-12-29T03:31:17;11.03;;;3.77;;
9763;SDS011;4921;43.214;27.936;2022-12-29T03:33:47;5.73;;;3.40;;
9763;SDS011;4921;43.214;27.936;2022-12-29T03:36:17;6.37;;;3.97;;
9763;SDS011;4921;43.214;27.936;2022-12-29T03:38:50;9.73;;;4.00;;
9763;SDS011;4921;43.214;27.936;2022-12-29T03:41:26;6.17;;;3.40;;
9763;SDS011;4921;43.214;27.936;2022-12-29T03:43:56;4.97;;;3.93;;
9763;SDS011;4921;43.214;27.936;2022-12-29T03:46:23;5.20;;;3.83;;
9763;SDS011;4921;43.214;27.936;2022-12-29T03:48:51;5.17;;;3.90;;
9763;SDS011;4921;43.214;27.936;2022-12-29T03:51:18;7.77;;;3.60;;
9763;SDS011;4921;43.214;27.936;2022-12-29T03:53:45;4.83;;;3.70;;
9763;SDS011;4921;43.214;27.936;2022-12-29T03:56:12;5.67;;;3.60;;
9763;SDS011;4921;43.214;27.936;2022-12-29T03:58:39;4.57;;;4.17;;
9763;SDS011;4921;43.214;27.936;2022-12-29T04:01:06;5.63;;;3.87;;
9763;SDS011;4921;43.214;27.936;2022-12-29T04:03:33;6.33;;;3.53;;
9763;SDS011;4921;43.214;27.936;2022-12-29T04:06:02;5.80;;;3.60;;
9763;SDS011;4921;43.214;27.936;2022-12-29T04:08:29;5.47;;;3.87;;
9763;SDS011;4921;43.214;27.936;2022-12-29T04:10:55;9.90;;;3.90;;
9763;SDS011;4921;43.214;27.936;2022-12-29T04:13:22;9.47;;;3.67;;
9763;SDS011;4921;43.214;27.936;2022-12-29T04:15:49;4.33;;;3.90;;
9763;SDS011;4921;43.214;27.936;2022-12-29T04:18:16;4.10;;;3.50;;
9763;SDS011;4921;43.214;27.936;2022-12-29T04:20:44;5.63;;;3.73;;
9763;SDS011;4921;43.214;27.936;2022-12-29T04:23:27;4.93;;;3.87;;
9763;SDS011;4921;43.214;27.936;2022-12-29T04:25:55;6.10;;;4.10;;
9763;SDS011;4921;43.214;27.936;2022-12-29T04:28:22;7.27;;;4.20;;
9763;SDS011;4921;43.214;27.936;2022-12-29T04:30:50;6.43;;;4.17;;
9763;SDS011;4921;43.214;27.936;2022-12-29T04:33:17;7.73;;;4.37;;
9763;SDS011;4921;43.214;27.936;2022-12-29T04:35:44;7.97;;;4.60;;
9763;SDS011;4921;43.214;27.936;2022-12-29T04:38:11;8.20;;;4.63;;
9763;SDS011;4921;43.214;27.936;2022-12-29T04:40:41;6.40;;;4.47;;
9763;SDS011;4921;43.214;27.936;2022-12-29T04:43:09;6.67;;;4.57;;
9763;SDS011;4921;43.214;27.936;2022-12-29T04:45:36;8.47;;;4.90;;
9763;SDS011;4921;43.214;27.936;2022-12-29T04:48:03;9.63;;;5.70;;
9763;SDS011;4921;43.214;27.936;2022-12-29T04:50:30;6.97;;;5.40;;
9763;SDS011;4921;43.214;27.936;2022-12-29T04:52:58;9.43;;;5.63;;
9763;SDS011;4921;43.214;27.936;2022-12-29T04:55:25;8.90;;;6.47;;
9763;SDS011;4921;43.214;27.936;2022-12-29T04:57:53;10.90;;;7.37;;
9763;SDS011;4921;43.214;27.936;2022-12-29T05:00:20;16.03;;;8.07;;
9763;SDS011;4921;43.214;27.936;2022-12-29T05:02:47;12.53;;;8.37;;
9763;SDS011;4921;43.214;27.936;2022-12-29T05:05:14;13.07;;;9.47;;
9763;SDS011;4921;43.214;27.936;2022-12-29T05:07:42;13.17;;;9.67;;
9763;SDS011;4921;43.214;27.936;2022-12-29T05:10:09;12.93;;;9.37;;
9763;SDS011;4921;43.214;27.936;2022-12-29T05:12:36;14.90;;;9.23;;
9763;SDS011;4921;43.214;27.936;2022-12-29T05:15:06;15.47;;;9.30;;
9763;SDS011;4921;43.214;27.936;2022-12-29T05:17:34;12.17;;;8.33;;
9763;SDS011;4921;43.214;27.936;2022-12-29T05:20:01;12.77;;;8.90;;
9763;SDS011;4921;43.214;27.936;2022-12-29T05:22:28;14.20;;;8.70;;
9763;SDS011;4921;43.214;27.936;2022-12-29T05:24:55;16.43;;;7.87;;
9763;SDS011;4921;43.214;27.936;2022-12-29T05:27:22;12.60;;;8.10;;
9763;SDS011;4921;43.214;27.936;2022-12-29T05:29:49;11.73;;;7.40;;
9763;SDS011;4921;43.214;27.936;2022-12-29T05:32:17;13.37;;;8.33;;
9763;SDS011;4921;43.214;27.936;2022-12-29T05:34:44;12.13;;;7.73;;
9763;SDS011;4921;43.214;27.936;2022-12-29T05:37:11;11.77;;;7.90;;
9763;SDS011;4921;43.214;27.936;2022-12-29T05:39:39;11.17;;;6.97;;
9763;SDS011;4921;43.214;27.936;2022-12-29T05:42:05;14.93;;;7.90;;
9763;SDS011;4921;43.214;27.936;2022-12-29T05:44:32;13.97;;;7.30;;
9763;SDS011;4921;43.214;27.936;2022-12-29T05:46:59;12.20;;;7.20;;
9763;SDS011;4921;43.214;27.936;2022-12-29T05:49:28;11.93;;;6.90;;
9763;SDS011;4921;43.214;27.936;2022-12-29T05:51:55;12.93;;;6.53;;
9763;SDS011;4921;43.214;27.936;2022-12-29T05:54:22;8.87;;;6.33;;
9763;SDS011;4921;43.214;27.936;2022-12-29T05:56:49;10.47;;;6.67;;
9763;SDS011;4921;43.214;27.936;2022-12-29T05:59:15;9.53;;;6.47;;
9763;SDS011;4921;43.214;27.936;2022-12-29T06:01:42;9.03;;;6.20;;
9763;SDS011;4921;43.214;27.936;2022-12-29T06:04:09;10.27;;;6.57;;
9763;SDS011;4921;43.214;27.936;2022-12-29T06:06:38;12.30;;;6.00;;
9763;SDS011;4921;43.214;27.936;2022-12-29T06:09:05;16.97;;;6.00;;
9763;SDS011;4921;43.214;27.936;2022-12-29T06:11:32;9.20;;;6.47;;
9763;SDS011;4921;43.214;27.936;2022-12-29T06:13:59;11.03;;;5.80;;
9763;SDS011;4921;43.214;27.936;2022-12-29T06:16:26;10.53;;;6.37;;
9763;SDS011;4921;43.214;27.936;2022-12-29T06:18:53;13.07;;;6.93;;
9763;SDS011;4921;43.214;27.936;2022-12-29T06:21:20;11.37;;;6.60;;
9763;SDS011;4921;43.214;27.936;2022-12-29T06:23:48;9.47;;;6.53;;
9763;SDS011;4921;43.214;27.936;2022-12-29T06:26:15;8.40;;;6.10;;
9763;SDS011;4921;43.214;27.936;2022-12-29T06:28:42;7.83;;;6.07;;
9763;SDS011;4921;43.214;27.936;2022-12-29T06:31:09;9.87;;;6.20;;
9763;SDS011;4921;43.214;27.936;2022-12-29T06:33:36;11.13;;;6.57;;
9763;SDS011;4921;43.214;27.936;2022-12-29T06:36:04;15.33;;;6.67;;
9763;SDS011;4921;43.214;27.936;2022-12-29T06:38:31;11.50;;;5.63;;
9763;SDS011;4921;43.214;27.936;2022-12-29T06:40:59;11.37;;;5.53;;
9763;SDS011;4921;43.214;27.936;2022-12-29T06:43:26;11.50;;;6.30;;
9763;SDS011;4921;43.214;27.936;2022-12-29T06:45:53;14.00;;;6.30;;
9763;SDS011;4921;43.214;27.936;2022-12-29T06:48:20;12.67;;;6.30;;
9763;SDS011;4921;43.214;27.936;2022-12-29T06:50:47;13.17;;;6.27;;
9763;SDS011;4921;43.214;27.936;2022-12-29T06:53:14;9.83;;;6.23;;
9763;SDS011;4921;43.214;27.936;2022-12-29T06:55:41;17.73;;;6.03;;
9763;SDS011;4921;43.214;27.936;2022-12-29T06:58:10;11.20;;;6.90;;
9763;SDS011;4921;43.214;27.936;2022-12-29T07:00:37;8.93;;;5.60;;
9763;SDS011;4921;43.214;27.936;2022-12-29T07:03:04;9.13;;;5.47;;
9763;SDS011;4921;43.214;27.936;2022-12-29T07:05:31;11.13;;;6.03;;
9763;SDS011;4921;43.214;27.936;2022-12-29T07:07:58;10.73;;;5.90;;
9763;SDS011;4921;43.214;27.936;2022-12-29T07:10:25;9.33;;;5.47;;
9763;SDS011;4921;43.214;27.936;2022-12-29T07:12:52;10.17;;;5.40;;
9763;SDS011;4921;43.214;27.936;2022-12-29T07:15:21;10.90;;;5.90;;
9763;SDS011;4921;43.214;27.936;2022-12-29T07:17:48;9.43;;;4.60;;
9763;SDS011;4921;43.214;27.936;2022-12-29T07:20:15;7.70;;;3.63;;
9763;SDS011;4921;43.214;27.936;2022-12-29T07:22:42;7.40;;;4.13;;
9763;SDS011;4921;43.214;27.936;2022-12-29T07:25:09;7.60;;;4.30;;
9763;SDS011;4921;43.214;27.936;2022-12-29T07:27:37;9.70;;;3.80;;
9763;SDS011;4921;43.214;27.936;2022-12-29T07:30:05;6.77;;;4.03;;
9763;SDS011;4921;43.214;27.936;2022-12-29T07:32:34;10.20;;;4.30;;
9763;SDS011;4921;43.214;27.936;2022-12-29T07:35:01;10.83;;;3.70;;
9763;SDS011;4921;43.214;27.936;2022-12-29T07:37:29;11.63;;;4.10;;
9763;SDS011;4921;43.214;27.936;2022-12-29T07:39:56;4.03;;;3.20;;
9763;SDS011;4921;43.214;27.936;2022-12-29T07:42:23;6.07;;;3.47;;
9763;SDS011;4921;43.214;27.936;2022-12-29T07:44:50;5.63;;;3.40;;
9763;SDS011;4921;43.214;27.936;2022-12-29T07:47:17;4.87;;;3.17;;
9763;SDS011;4921;43.214;27.936;2022-12-29T07:49:45;6.73;;;3.60;;
9763;SDS011;4921;43.214;27.936;2022-12-29T07:52:12;8.03;;;3.80;;
9763;SDS011;4921;43.214;27.936;2022-12-29T07:54:39;4.13;;;3.40;;
9763;SDS011;4921;43.214;27.936;2022-12-29T07:57:06;5.33;;;3.10;;
9763;SDS011;4921;43.214;27.936;2022-12-29T07:59:33;4.13;;;3.57;;
9763;SDS011;4921;43.214;27.936;2022-12-29T08:02:00;3.83;;;2.67;;
9763;SDS011;4921;43.214;27.936;2022-12-29T08:04:27;4.73;;;3.60;;
9763;SDS011;4921;43.214;27.936;2022-12-29T08:06:56;6.50;;;3.30;;
9763;SDS011;4921;43.214;27.936;2022-12-29T08:09:23;6.33;;;3.37;;
9763;SDS011;4921;43.214;27.936;2022-12-29T08:11:49;6.47;;;3.23;;
9763;SDS011;4921;43.214;27.936;2022-12-29T08:14:17;4.80;;;3.83;;
9763;SDS011;4921;43.214;27.936;2022-12-29T08:16:44;7.70;;;3.70;;
9763;SDS011;4921;43.214;27.936;2022-12-29T08:19:12;7.03;;;3.60;;
9763;SDS011;4921;43.214;27.936;2022-12-29T08:21:39;5.00;;;3.70;;
9763;SDS011;4921;43.214;27.936;2022-12-29T08:24:08;6.23;;;4.13;;
9763;SDS011;4921;43.214;27.936;2022-12-29T08:26:35;5.40;;;4.10;;
9763;SDS011;4921;43.214;27.936;2022-12-29T08:29:02;7.37;;;4.67;;
9763;SDS011;4921;43.214;27.936;2022-12-29T08:31:29;7.70;;;4.40;;
9763;SDS011;4921;43.214;27.936;2022-12-29T08:33:56;8.40;;;4.30;;
9763;SDS011;4921;43.214;27.936;2022-12-29T08:36:25;7.97;;;5.50;;
9763;SDS011;4921;43.214;27.936;2022-12-29T08:38:52;7.90;;;5.33;;
9763;SDS011;4921;43.214;27.936;2022-12-29T08:41:20;7.97;;;5.67;;
9763;SDS011;4921;43.214;27.936;2022-12-29T08:43:47;8.23;;;5.23;;
9763;SDS011;4921;43.214;27.936;2022-12-29T08:46:15;6.30;;;4.90;;
9763;SDS011;4921;43.214;27.936;2022-12-29T08:48:42;10.57;;;4.93;;
9763;SDS011;4921;43.214;27.936;2022-12-29T08:51:09;8.90;;;5.83;;
9763;SDS011;4921;43.214;27.936;2022-12-29T08:53:37;11.97;;;6.67;;
9763;SDS011;4921;43.214;27.936;2022-12-29T08:56:04;10.80;;;5.33;;
9763;SDS011;4921;43.214;27.936;2022-12-29T08:58:33;9.23;;;5.90;;
9763;SDS011;4921;43.214;27.936;2022-12-29T09:01:00;10.63;;;5.90;;
9763;SDS011;4921;43.214;27.936;2022-12-29T09:03:27;14.33;;;6.03;;
9763;SDS011;4921;43.214;27.936;2022-12-29T09:05:54;10.37;;;6.23;;
9763;SDS011;4921;43.214;27.936;2022-12-29T09:08:21;11.83;;;5.77;;
9763;SDS011;4921;43.214;27.936;2022-12-29T09:10:49;8.23;;;6.10;;
9763;SDS011;4921;43.214;27.936;2022-12-29T09:13:16;10.50;;;6.00;;
9763;SDS011;4921;43.214;27.936;2022-12-29T09:15:45;9.13;;;6.03;;
9763;SDS011;4921;43.214;27.936;2022-12-29T09:18:12;9.80;;;5.90;;
9763;SDS011;4921;43.214;27.936;2022-12-29T09:20:39;10.40;;;5.83;;
9763;SDS011;4921;43.214;27.936;2022-12-29T09:23:05;7.70;;;6.43;;
9763;SDS011;4921;43.214;27.936;2022-12-29T09:25:33;12.80;;;7.17;;
9763;SDS011;4921;43.214;27.936;2022-12-29T09:28:00;8.97;;;5.73;;
9763;SDS011;4921;43.214;27.936;2022-12-29T09:30:32;11.00;;;6.43;;
9763;SDS011;4921;43.214;27.936;2022-12-29T09:33:01;10.37;;;6.27;;
9763;SDS011;4921;43.214;27.936;2022-12-29T09:35:28;8.10;;;6.53;;
9763;SDS011;4921;43.214;27.936;2022-12-29T09:37:55;9.50;;;6.47;;
9763;SDS011;4921;43.214;27.936;2022-12-29T09:40:24;15.93;;;7.50;;
9763;SDS011;4921;43.214;27.936;2022-12-29T09:43:06;10.57;;;6.73;;
9763;SDS011;4921;43.214;27.936;2022-12-29T09:45:44;12.23;;;7.50;;
9763;SDS011;4921;43.214;27.936;2022-12-29T09:48:16;11.97;;;7.83;;
9763;SDS011;4921;43.214;27.936;2022-12-29T09:50:47;13.03;;;7.97;;
9763;SDS011;4921;43.214;27.936;2022-12-29T09:53:20;10.17;;;7.53;;
9763;SDS011;4921;43.214;27.936;2022-12-29T09:55:53;12.13;;;8.30;;
9763;SDS011;4921;43.214;27.936;2022-12-29T09:58:24;12.70;;;8.30;;
9763;SDS011;4921;43.214;27.936;2022-12-29T10:00:59;9.47;;;7.90;;
9763;SDS011;4921;43.214;27.936;2022-12-29T10:03:35;10.50;;;7.17;;
9763;SDS011;4921;43.214;27.936;2022-12-29T10:06:12;10.53;;;7.47;;
9763;SDS011;4921;43.214;27.936;2022-12-29T10:08:44;10.93;;;8.17;;
9763;SDS011;4921;43.214;27.936;2022-12-29T10:11:22;15.90;;;8.13;;
9763;SDS011;4921;43.214;27.936;2022-12-29T10:14:03;10.93;;;7.47;;
9763;SDS011;4921;43.214;27.936;2022-12-29T10:16:43;9.23;;;8.10;;
9763;SDS011;4921;43.214;27.936;2022-12-29T10:22:22;14.80;;;7.73;;
9763;SDS011;4921;43.214;27.936;2022-12-29T10:24:57;13.63;;;8.47;;
9763;SDS011;4921;43.214;27.936;2022-12-29T10:27:30;14.07;;;7.60;;
9763;SDS011;4921;43.214;27.936;2022-12-29T10:29:59;12.93;;;6.87;;
9763;SDS011;4921;43.214;27.936;2022-12-29T10:32:29;11.27;;;7.63;;
9763;SDS011;4921;43.214;27.936;2022-12-29T10:35:05;11.13;;;7.57;;
9763;SDS011;4921;43.214;27.936;2022-12-29T10:37:39;10.50;;;7.00;;
9763;SDS011;4921;43.214;27.936;2022-12-29T10:40:14;13.23;;;7.07;;
9763;SDS011;4921;43.214;27.936;2022-12-29T10:42:46;9.20;;;7.17;;
9763;SDS011;4921;43.214;27.936;2022-12-29T10:45:17;7.23;;;6.03;;
9763;SDS011;4921;43.214;27.936;2022-12-29T10:47:49;8.83;;;5.90;;
9763;SDS011;4921;43.214;27.936;2022-12-29T10:50:22;10.60;;;6.80;;
9763;SDS011;4921;43.214;27.936;2022-12-29T10:52:50;11.50;;;6.13;;
9763;SDS011;4921;43.214;27.936;2022-12-29T10:55:19;7.17;;;5.57;;
9763;SDS011;4921;43.214;27.936;2022-12-29T10:57:49;7.47;;;5.67;;
9763;SDS011;4921;43.214;27.936;2022-12-29T11:00:16;11.40;;;5.57;;
9763;SDS011;4921;43.214;27.936;2022-12-29T11:02:48;6.53;;;5.40;;
9763;SDS011;4921;43.214;27.936;2022-12-29T11:05:31;7.47;;;5.07;;
9763;SDS011;4921;43.214;27.936;2022-12-29T11:08:07;6.07;;;5.27;;
9763;SDS011;4921;43.214;27.936;2022-12-29T11:10:38;6.07;;;4.70;;
9763;SDS011;4921;43.214;27.936;2022-12-29T11:13:11;5.40;;;4.20;;
9763;SDS011;4921;43.214;27.936;2022-12-29T11:15:39;7.90;;;4.70;;
9763;SDS011;4921;43.214;27.936;2022-12-29T11:18:17;4.93;;;4.27;;
9763;SDS011;4921;43.214;27.936;2022-12-29T11:20:47;8.43;;;4.43;;
9763;SDS011;4921;43.214;27.936;2022-12-29T11:29:03;5.17;;;4.40;;
9763;SDS011;4921;43.214;27.936;2022-12-29T11:31:46;7.33;;;4.80;;
9763;SDS011;4921;43.214;27.936;2022-12-29T11:34:18;7.30;;;4.57;;
9763;SDS011;4921;43.214;27.936;2022-12-29T11:36:48;5.67;;;4.90;;
9763;SDS011;4921;43.214;27.936;2022-12-29T11:39:23;7.00;;;4.63;;
9763;SDS011;4921;43.214;27.936;2022-12-29T11:41:54;7.70;;;4.43;;
9763;SDS011;4921;43.214;27.936;2022-12-29T11:44:22;7.77;;;5.53;;
9763;SDS011;4921;43.214;27.936;2022-12-29T11:46:50;8.03;;;5.00;;
9763;SDS011;4921;43.214;27.936;2022-12-29T11:49:19;9.30;;;4.83;;
9763;SDS011;4921;43.214;27.936;2022-12-29T11:51:51;8.93;;;4.57;;
9763;SDS011;4921;43.214;27.936;2022-12-29T11:54:22;8.00;;;4.70;;
9763;SDS011;4921;43.214;27.936;2022-12-29T11:56:53;8.17;;;5.30;;
9763;SDS011;4921;43.214;27.936;2022-12-29T11:59:24;9.07;;;5.30;;
9763;SDS011;4921;43.214;27.936;2022-12-29T12:02:23;10.00;;;5.10;;
9763;SDS011;4921;43.214;27.936;2022-12-29T12:04:58;5.23;;;4.23;;
9763;SDS011;4921;43.214;27.936;2022-12-29T12:07:34;8.20;;;5.33;;
9763;SDS011;4921;43.214;27.936;2022-12-29T12:10:06;6.77;;;4.87;;
9763;SDS011;4921;43.214;27.936;2022-12-29T12:12:43;11.03;;;4.90;;
9763;SDS011;4921;43.214;27.936;2022-12-29T12:15:16;5.97;;;5.27;;
9763;SDS011;4921;43.214;27.936;2022-12-29T12:17:48;6.03;;;5.27;;
9763;SDS011;4921;43.214;27.936;2022-12-29T12:20:18;7.77;;;5.67;;
9763;SDS011;4921;43.214;27.936;2022-12-29T12:22:51;9.57;;;4.47;;
9763;SDS011;4921;43.214;27.936;2022-12-29T12:25:27;10.17;;;4.83;;
9763;SDS011;4921;43.214;27.936;2022-12-29T12:28:00;6.93;;;5.30;;
9763;SDS011;4921;43.214;27.936;2022-12-29T12:30:33;9.20;;;5.00;;
9763;SDS011;4921;43.214;27.936;2022-12-29T12:33:11;7.73;;;4.73;;
9763;SDS011;4921;43.214;27.936;2022-12-29T12:35:47;8.33;;;5.33;;
9763;SDS011;4921;43.214;27.936;2022-12-29T12:38:27;12.00;;;5.83;;
9763;SDS011;4921;43.214;27.936;2022-12-29T12:41:08;9.13;;;5.10;;
9763;SDS011;4921;43.214;27.936;2022-12-29T12:43:39;8.47;;;5.73;;
9763;SDS011;4921;43.214;27.936;2022-12-29T12:52:14;8.90;;;5.33;;
9763;SDS011;4921;43.214;27.936;2022-12-29T12:55:00;11.90;;;5.57;;
9763;SDS011;4921;43.214;27.936;2022-12-29T12:57:40;6.50;;;4.67;;
9763;SDS011;4921;43.214;27.936;2022-12-29T13:00:15;9.83;;;4.40;;
9763;SDS011;4921;43.214;27.936;2022-12-29T13:02:49;9.77;;;5.10;;
9763;SDS011;4921;43.214;27.936;2022-12-29T13:05:36;8.20;;;5.13;;
9763;SDS011;4921;43.214;27.936;2022-12-29T13:08:28;6.43;;;4.47;;
9763;SDS011;4921;43.214;27.936;2022-12-29T13:11:16;9.57;;;4.77;;
9763;SDS011;4921;43.214;27.936;2022-12-29T13:14:03;9.07;;;5.33;;
9763;SDS011;4921;43.214;27.936;2022-12-29T13:16:41;7.50;;;5.33;;
9763;SDS011;4921;43.214;27.936;2022-12-29T13:19:18;7.10;;;4.90;;
9763;SDS011;4921;43.214;27.936;2022-12-29T13:21:58;8.40;;;4.87;;
9763;SDS011;4921;43.214;27.936;2022-12-29T13:24:35;8.83;;;5.33;;
9763;SDS011;4921;43.214;27.936;2022-12-29T13:27:14;9.90;;;5.60;;
9763;SDS011;4921;43.214;27.936;2022-12-29T13:29:50;9.80;;;4.80;;
9763;SDS011;4921;43.214;27.936;2022-12-29T13:32:30;14.53;;;5.73;;
9763;SDS011;4921;43.214;27.936;2022-12-29T13:35:17;10.53;;;5.70;;
9763;SDS011;4921;43.214;27.936;2022-12-29T13:37:55;9.97;;;5.87;;
9763;SDS011;4921;43.214;27.936;2022-12-29T13:40:27;8.47;;;6.00;;
9763;SDS011;4921;43.214;27.936;2022-12-29T13:43:00;11.77;;;5.80;;
9763;SDS011;4921;43.214;27.936;2022-12-29T13:45:29;12.03;;;6.33;;
9763;SDS011;4921;43.214;27.936;2022-12-29T13:48:01;7.63;;;5.83;;
9763;SDS011;4921;43.214;27.936;2022-12-29T13:50:33;7.60;;;5.43;;
9763;SDS011;4921;43.214;27.936;2022-12-29T13:53:06;8.23;;;6.10;;
9763;SDS011;4921;43.214;27.936;2022-12-29T13:55:44;14.87;;;7.33;;
9763;SDS011;4921;43.214;27.936;2022-12-29T13:58:17;10.97;;;6.57;;
9763;SDS011;4921;43.214;27.936;2022-12-29T14:00:53;12.43;;;7.40;;
9763;SDS011;4921;43.214;27.936;2022-12-29T14:06:15;11.00;;;7.97;;
9763;SDS011;4921;43.214;27.936;2022-12-29T14:08:48;18.20;;;8.40;;
9763;SDS011;4921;43.214;27.936;2022-12-29T14:11:18;10.17;;;7.30;;
9763;SDS011;4921;43.214;27.936;2022-12-29T14:13:51;13.30;;;7.50;;
9763;SDS011;4921;43.214;27.936;2022-12-29T14:16:29;10.60;;;6.90;;
9763;SDS011;4921;43.214;27.936;2022-12-29T14:19:03;10.17;;;6.53;;
9763;SDS011;4921;43.214;27.936;2022-12-29T14:21:36;10.93;;;7.33;;
9763;SDS011;4921;43.214;27.936;2022-12-29T14:26:54;18.10;;;7.23;;
9763;SDS011;4921;43.214;27.936;2022-12-29T14:29:43;14.10;;;7.50;;
9763;SDS011;4921;43.214;27.936;2022-12-29T14:38:06;13.63;;;8.57;;
9763;SDS011;4921;43.214;27.936;2022-12-29T14:40:41;15.00;;;8.70;;
9763;SDS011;4921;43.214;27.936;2022-12-29T14:43:11;10.93;;;8.37;;
9763;SDS011;4921;43.214;27.936;2022-12-29T14:45:42;14.73;;;8.17;;
9763;SDS011;4921;43.214;27.936;2022-12-29T14:48:20;14.03;;;8.10;;
9763;SDS011;4921;43.214;27.936;2022-12-29T14:50:56;11.00;;;8.10;;
9763;SDS011;4921;43.214;27.936;2022-12-29T14:53:42;15.07;;;8.67;;
9763;SDS011;4921;43.214;27.936;2022-12-29T14:56:11;11.17;;;8.73;;
9763;SDS011;4921;43.214;27.936;2022-12-29T14:58:43;12.30;;;8.53;;
9763;SDS011;4921;43.214;27.936;2022-12-29T15:01:20;14.00;;;7.93;;
9763;SDS011;4921;43.214;27.936;2022-12-29T15:03:51;14.70;;;8.37;;
9763;SDS011;4921;43.214;27.936;2022-12-29T15:06:23;12.60;;;8.50;;
9763;SDS011;4921;43.214;27.936;2022-12-29T15:08:56;16.57;;;9.40;;
9763;SDS011;4921;43.214;27.936;2022-12-29T15:11:32;10.63;;;8.70;;
9763;SDS011;4921;43.214;27.936;2022-12-29T15:17:08;13.93;;;8.03;;
9763;SDS011;4921;43.214;27.936;2022-12-29T15:19:36;17.13;;;9.40;;
9763;SDS011;4921;43.214;27.936;2022-12-29T15:22:03;16.33;;;9.33;;
9763;SDS011;4921;43.214;27.936;2022-12-29T15:24:32;14.70;;;8.80;;
9763;SDS011;4921;43.214;27.936;2022-12-29T15:27:02;13.07;;;8.63;;
9763;SDS011;4921;43.214;27.936;2022-12-29T15:29:32;14.07;;;8.57;;
9763;SDS011;4921;43.214;27.936;2022-12-29T15:32:14;13.23;;;8.40;;
9763;SDS011;4921;43.214;27.936;2022-12-29T15:34:44;13.27;;;8.80;;
9763;SDS011;4921;43.214;27.936;2022-12-29T15:37:15;13.57;;;8.50;;
9763;SDS011;4921;43.214;27.936;2022-12-29T15:39:44;13.23;;;9.17;;
9763;SDS011;4921;43.214;27.936;2022-12-29T15:42:16;15.53;;;9.47;;
9763;SDS011;4921;43.214;27.936;2022-12-29T15:44:52;15.53;;;9.73;;
9763;SDS011;4921;43.214;27.936;2022-12-29T15:47:21;14.20;;;9.53;;
9763;SDS011;4921;43.214;27.936;2022-12-29T15:49:50;14.03;;;10.10;;
9763;SDS011;4921;43.214;27.936;2022-12-29T15:52:22;15.47;;;10.43;;
9763;SDS011;4921;43.214;27.936;2022-12-29T15:54:50;19.17;;;11.17;;
9763;SDS011;4921;43.214;27.936;2022-12-29T15:57:21;14.17;;;10.50;;